Time;durP1;ratioP1;P1;durP2;ratioP2;P2;SDS_P1;SDS_P2;PMS_P1;PMS_P2;Temp;Humidity;BMP_temperature;BMP_pressure;BME280_temperature;BME280_humidity;BME280_pressure;Samples;Min_cycle;Max_cycle;Signal;HPM_P1;HPM_P2
2022/10/12 00:04:26;;;;;;;65.78;4.50;;;;;;;4.52;64.62;100833.31;10391234;28;20057;-63
2022/10/12 00:09:27;;;;;;;89.35;5.10;;;;;;;4.51;64.49;100821.25;10391665;28;20053;-63
2022/10/12 00:14:29;;;;;;;94.43;5.28;;;;;;;4.45;64.57;100816.19;10390151;28;20045;-64
2022/10/12 00:19:31;;;;;;;124.13;5.60;;;;;;;4.45;64.28;100823.09;10389919;28;20054;-64
2022/10/12 00:24:32;;;;;;;113.68;5.47;;;;;;;4.38;64.45;100813.75;10390643;28;20371;-63
2022/10/12 00:29:34;;;;;;;59.45;4.28;;;;;;;4.34;64.56;100817.28;10390079;28;20052;-63
2022/10/12 00:34:36;;;;;;;98.65;5.03;;;;;;;4.31;64.62;100825.13;10391968;28;20064;-63
2022/10/12 00:39:37;;;;;;;23.35;3.17;;;;;;;4.26;64.63;100825.22;10390267;28;20045;-63
2022/10/12 00:44:47;;;;;;;122.07;5.65;;;;;;;4.24;64.77;100829.56;10388425;28;20044;-63
2022/10/12 00:50:01;;;;;;;55.40;4.28;;;;;;;4.26;64.82;100822.63;10381023;28;20041;-63
2022/10/12 00:55:05;;;;;;;63.88;4.20;;;;;;;4.27;64.73;100826.06;10389621;28;20041;-63
2022/10/12 01:00:08;;;;;;;15.18;3.03;;;;;;;4.23;64.58;100838.19;10389184;28;20057;-63
2022/10/12 01:05:11;;;;;;;77.47;4.93;;;;;;;4.19;64.55;100835.72;10389378;28;20237;-63
2022/10/12 01:10:12;;;;;;;301.30;10.40;;;;;;;4.10;64.58;100831.56;10388343;28;20041;-63
2022/10/12 01:15:15;;;;;;;20.00;3.17;;;;;;;4.04;64.66;100833.41;10388447;28;20072;-63
2022/10/12 01:20:19;;;;;;;5.55;2.70;;;;;;;4.07;64.83;100829.03;10388787;28;20041;-63
2022/10/12 01:25:36;;;;;;;27.45;3.40;;;;;;;4.04;64.69;100829.09;10387492;28;20041;-63
2022/10/12 01:30:47;;;;;;;67.30;4.68;;;;;;;4.05;64.69;100824.78;10388558;28;20052;-63
2022/10/12 01:36:27;;;;;;;35.08;3.55;;;;;;;4.00;65.00;100819.69;10387138;28;20243;-62
2022/10/12 01:41:35;;;;;;;37.47;3.63;;;;;;;4.00;64.73;100816.25;10386911;28;20499;-63
2022/10/12 01:46:41;;;;;;;27.58;3.60;;;;;;;3.99;64.79;100820.56;10387271;28;20285;-64
2022/10/12 01:52:00;;;;;;;78.80;4.30;;;;;;;3.96;65.03;100812.88;10386717;28;20500;-63
2022/10/12 01:57:10;;;;;;;315.10;7.53;;;;;;;3.80;65.26;100808.84;10385838;28;20057;-64
2022/10/12 02:02:38;;;;;;;459.52;11.95;;;;;;;3.72;65.27;100800.34;10389160;28;20509;-64
2022/10/12 02:07:47;;;;;;;205.23;7.10;;;;;;;3.78;65.10;100800.25;10393228;28;20287;-63
2022/10/12 02:12:51;;;;;;;176.02;6.78;;;;;;;3.81;64.67;100800.16;10393206;28;20060;-64
2022/10/12 02:17:53;;;;;;;203.77;6.65;;;;;;;3.79;65.11;100809.69;10394129;28;20072;-64
2022/10/12 02:22:55;;;;;;;132.50;4.93;;;;;;;3.77;65.10;100811.47;10393748;28;20053;-63
2022/10/12 02:28:04;;;;;;;131.63;5.20;;;;;;;3.77;65.33;100793.34;10394454;28;20053;-64
2022/10/12 02:33:24;;;;;;;94.07;4.30;;;;;;;3.71;65.63;100791.75;10393874;28;20502;-64
2022/10/12 02:38:38;;;;;;;307.48;7.85;;;;;;;3.77;65.32;100788.16;10391641;28;20064;-64
2022/10/12 02:43:47;;;;;;;148.18;5.47;;;;;;;3.85;65.36;100792.38;10392269;28;20049;-65
2022/10/12 02:48:51;;;;;;;285.63;8.40;;;;;;;3.82;65.15;100783.78;10392740;28;20065;-64
2022/10/12 02:53:53;;;;;;;198.55;6.63;;;;;;;3.91;65.32;100782.75;10391998;28;20762;-64
2022/10/12 02:58:55;;;;;;;145.48;5.93;;;;;;;3.93;65.07;100774.09;10393733;28;20497;-64
2022/10/12 03:03:57;;;;;;;320.08;9.75;;;;;;;4.02;65.20;100767.91;10389464;28;20057;-65
2022/10/12 03:08:58;;;;;;;164.90;7.45;;;;;;;4.06;64.93;100773.00;10386506;28;20060;-63
2022/10/12 03:14:00;;;;;;;321.98;9.20;;;;;;;3.90;65.37;100768.13;10384831;28;20426;-64
2022/10/12 03:19:02;;;;;;;406.67;10.88;;;;;;;3.86;65.50;100777.69;10384936;28;20033;-64
2022/10/12 03:24:04;;;;;;;327.40;9.32;;;;;;;3.86;65.41;100775.13;10385260;28;20056;-64
2022/10/12 03:29:05;;;;;;;169.02;5.68;;;;;;;3.98;65.44;100769.69;10385609;28;20477;-64
2022/10/12 03:34:07;;;;;;;364.75;9.88;;;;;;;4.10;65.41;100759.09;10383144;28;20041;-64
2022/10/12 03:39:10;;;;;;;111.57;4.82;;;;;;;4.08;65.26;100771.22;10383914;28;20054;-65
2022/10/12 03:44:12;;;;;;;142.75;5.93;;;;;;;4.20;65.24;100767.53;10384527;28;20045;-63
2022/10/12 03:49:14;;;;;;;130.07;6.10;;;;;;;4.25;65.00;100766.53;10385460;28;20038;-63
2022/10/12 03:54:15;;;;;;;87.32;5.07;;;;;;;4.28;65.17;100766.47;10385359;28;20049;-63
2022/10/12 03:59:17;;;;;;;48.20;3.70;;;;;;;4.16;65.32;100771.91;10384295;28;20049;-63
2022/10/12 04:04:19;;;;;;;169.30;6.55;;;;;;;4.02;65.47;100765.31;10383822;28;20064;-63
2022/10/12 04:09:20;;;;;;;350.98;9.63;;;;;;;4.10;65.38;100761.69;10384670;28;20057;-63
2022/10/12 04:14:22;;;;;;;108.60;4.75;;;;;;;4.16;65.41;100765.88;10370135;28;20060;-63
2022/10/12 04:19:23;;;;;;;70.32;4.25;;;;;;;4.13;65.71;100765.97;10390909;28;20208;-63
2022/10/12 04:24:25;;;;;;;110.35;8.50;;;;;;;4.29;65.45;100763.00;10390138;28;20073;-64
2022/10/12 04:29:27;;;;;;;201.05;8.07;;;;;;;4.32;65.09;100775.03;10391126;28;20041;-63
2022/10/12 04:34:28;;;;;;;119.10;5.95;;;;;;;4.38;64.97;100767.13;10391815;28;20498;-63
2022/10/12 04:39:30;;;;;;;205.60;8.18;;;;;;;4.28;65.26;100765.63;10391283;28;20045;-63
2022/10/12 04:44:32;;;;;;;184.73;9.57;;;;;;;4.12;65.14;100766.81;10390713;28;20053;-63
2022/10/12 04:49:34;;;;;;;302.08;14.35;;;;;;;3.76;65.49;100774.38;10389910;28;20046;-64
2022/10/12 04:54:36;;;;;;;180.18;10.00;;;;;;;3.83;65.96;100767.34;10390055;28;20056;-63
2022/10/12 04:59:37;;;;;;;176.50;9.27;;;;;;;4.02;65.54;100766.16;10390537;28;20533;-63
2022/10/12 05:04:39;;;;;;;385.48;13.85;;;;;;;3.98;65.38;100763.66;10389516;28;20057;-63
2022/10/12 05:09:40;;;;;;;184.25;9.80;;;;;;;4.02;65.88;100765.31;10388818;28;20052;-63
2022/10/12 05:14:43;;;;;;;589.60;15.57;;;;;;;4.11;65.60;100763.38;10390292;28;20057;-63
2022/10/12 05:19:44;;;;;;;407.48;12.65;;;;;;;4.12;65.82;100757.34;10388333;28;20149;-63
2022/10/12 05:24:46;;;;;;;419.10;13.25;;;;;;;3.96;65.76;100758.53;10389785;28;20053;-63
2022/10/12 05:29:54;;;;;;;472.45;15.43;;;;;;;3.95;65.82;100766.28;10388414;28;20038;-63
2022/10/12 05:34:55;;;;;;;219.35;8.80;;;;;;;3.88;66.12;100765.59;10388741;28;20461;-63
2022/10/12 05:39:57;;;;;;;277.95;10.43;;;;;;;3.90;66.43;100763.81;10388242;28;20045;-63
2022/10/12 05:44:59;;;;;;;332.45;10.45;;;;;;;3.92;66.30;100762.06;10387559;28;20060;-63
2022/10/12 05:50:01;;;;;;;399.75;12.82;;;;;;;4.05;66.33;100753.16;10387085;28;20771;-63
2022/10/12 05:55:02;;;;;;;471.02;15.98;;;;;;;4.06;66.00;100759.19;10387291;28;20049;-63
2022/10/12 06:00:05;;;;;;;317.65;10.25;;;;;;;3.94;66.10;100749.06;10387263;28;20102;-64
2022/10/12 06:05:07;;;;;;;750.70;20.58;;;;;;;4.17;66.09;100755.47;10388624;28;20052;-72
2022/10/12 06:10:09;;;;;;;535.72;15.52;;;;;;;4.32;65.79;100757.75;10386251;28;20057;-72
2022/10/12 06:15:10;;;;;;;231.65;9.30;;;;;;;4.39;65.66;100750.72;10387465;28;20045;-72
2022/10/12 06:20:12;;;;;;;167.60;8.90;;;;;;;4.50;65.37;100753.91;10384383;28;20406;-71
2022/10/12 06:25:14;;;;;;;251.85;11.10;;;;;;;4.45;65.47;100745.41;10384982;28;20107;-71
2022/10/12 06:30:16;;;;;;;329.65;9.48;;;;;;;4.43;65.48;100749.78;10385642;28;20046;-71
2022/10/12 06:35:17;;;;;;;365.75;10.50;;;;;;;4.40;65.62;100758.44;10373081;28;20053;-72
2022/10/12 06:40:19;;;;;;;135.65;7.43;;;;;;;4.58;65.72;100762.38;10386158;28;20045;-71
2022/10/12 06:45:21;;;;;;;174.07;8.43;;;;;;;4.65;65.31;100761.34;10385385;28;20056;-72
2022/10/12 06:50:24;;;;;;;196.35;8.68;;;;;;;4.72;65.42;100763.78;10378191;28;20076;-72
2022/10/12 06:55:25;;;;;;;137.73;6.68;;;;;;;4.59;65.64;100771.88;10368532;28;20096;-73
2022/10/12 07:00:27;;;;;;;334.35;9.98;;;;;;;4.53;65.53;100770.25;10386360;28;20053;-72
2022/10/12 07:05:29;;;;;;;197.05;9.05;;;;;;;4.63;65.55;100765.72;10384369;28;20056;-72
2022/10/12 07:10:30;;;;;;;299.13;9.80;;;;;;;4.72;65.08;100779.31;10384527;28;21065;-72
2022/10/12 07:15:32;;;;;;;264.35;9.07;;;;;;;4.68;65.58;100779.41;10385951;28;20057;-72
2022/10/12 07:20:34;;;;;;;370.88;13.23;;;;;;;4.91;64.66;100790.13;10384965;28;20053;-72
2022/10/12 07:25:35;;;;;;;248.55;9.98;;;;;;;4.97;64.89;100799.47;10384827;28;20050;-72
2022/10/12 07:30:37;;;;;;;264.13;10.13;;;;;;;5.09;64.74;100794.00;10383660;28;20369;-72
2022/10/12 07:35:39;;;;;;;457.08;15.27;;;;;;;5.25;64.32;100790.16;10384685;28;20498;-72
2022/10/12 07:41:02;;;;;;;404.70;12.85;;;;;;;5.57;64.08;100791.06;10386175;28;20049;-72
2022/10/12 07:46:03;;;;;;;106.15;6.75;;;;;;;5.65;63.90;100790.03;10384157;28;20441;-72
2022/10/12 07:51:07;;;;;;;218.68;10.73;;;;;;;5.69;63.92;100795.09;10385494;28;20595;-72
2022/10/12 07:56:14;;;;;;;198.38;8.85;;;;;;;5.49;64.10;100787.81;10393204;28;20064;-72
2022/10/12 08:01:17;;;;;;;290.58;11.35;;;;;;;5.65;64.00;100795.22;10389712;28;20143;-73
2022/10/12 08:06:21;;;;;;;175.82;9.70;;;;;;;5.75;63.39;100797.53;10390266;28;20056;-72
2022/10/12 08:11:23;;;;;;;46.88;8.20;;;;;;;5.86;63.92;100795.50;10392219;28;20053;-72
2022/10/12 08:16:24;;;;;;;465.70;14.73;;;;;;;5.96;63.01;100790.91;10392371;28;20322;-72
2022/10/12 08:21:26;;;;;;;179.13;8.52;;;;;;;6.34;63.18;100785.53;10391256;28;20486;-72
2022/10/12 08:26:29;;;;;;;170.30;9.70;;;;;;;6.68;62.39;100785.38;10392026;28;20057;-72
2022/10/12 08:31:31;;;;;;;379.55;15.40;;;;;;;7.02;61.50;100771.28;10388134;28;20417;-71
2022/10/12 08:36:32;;;;;;;122.03;10.38;;;;;;;6.99;61.81;100776.59;10390825;28;20716;-71
2022/10/12 08:41:37;;;;;;;82.15;8.02;;;;;;;7.35;61.48;100769.31;10389428;28;20056;-71
2022/10/12 08:46:39;;;;;;;44.60;7.95;;;;;;;7.50;61.02;100760.16;10389669;28;20068;-71
2022/10/12 08:51:54;;;;;;;33.00;7.25;;;;;;;7.38;60.20;100765.78;10391443;28;20064;-71
2022/10/12 08:56:56;;;;;;;61.20;11.35;;;;;;;6.92;61.67;100762.06;10390695;28;20053;-71
2022/10/12 09:02:06;;;;;;;75.80;9.80;;;;;;;6.52;62.14;100768.53;10389712;28;20065;-71
2022/10/12 09:07:21;;;;;;;77.27;11.70;;;;;;;6.81;61.96;100765.91;10390500;28;20053;-71
2022/10/12 09:12:54;;;;;;;34.90;10.40;;;;;;;7.07;62.09;100765.94;10387526;28;20049;-71
2022/10/12 09:17:59;;;;;;;13.60;7.32;;;;;;;7.45;61.17;100764.69;10387403;28;20045;-70
2022/10/12 09:23:10;;;;;;;16.13;8.70;;;;;;;7.47;60.78;100761.09;10388870;28;20053;-71
2022/10/12 09:28:21;;;;;;;14.60;7.93;;;;;;;7.30;60.71;100760.84;10386563;28;20050;-71
2022/10/12 09:33:29;;;;;;;15.27;6.80;;;;;;;7.37;60.92;100753.66;10388532;28;20584;-71
2022/10/12 09:38:30;;;;;;;14.57;6.72;;;;;;;7.83;60.31;100744.19;10385910;28;20060;-71
2022/10/12 09:43:32;;;;;;;11.98;5.90;;;;;;;8.24;60.08;100744.50;10387069;28;20053;-72
2022/10/12 09:48:34;;;;;;;12.13;5.65;;;;;;;8.24;60.12;100731.47;10386313;28;20054;-71
2022/10/12 09:53:48;;;;;;;15.02;6.72;;;;;;;8.09;60.36;100726.78;10389392;28;20048;-71
2022/10/12 09:59:00;;;;;;;12.57;6.15;;;;;;;8.07;61.07;100733.81;10385695;28;20264;-71
2022/10/12 10:04:14;;;;;;;14.52;6.20;;;;;;;8.35;60.44;100722.34;10385678;28;20053;-71
2022/10/12 10:09:46;;;;;;;12.95;6.32;;;;;;;8.62;59.09;100721.28;10386619;28;20057;-70
2022/10/12 10:14:52;;;;;;;14.50;6.63;;;;;;;8.91;59.20;100720.13;10369419;28;20049;-71
2022/10/12 10:19:57;;;;;;;16.75;5.88;;;;;;;9.24;58.66;100715.28;10384492;28;20053;-71
2022/10/12 10:25:01;;;;;;;11.75;6.05;;;;;;;9.52;58.10;100711.41;10382017;28;20131;-71
2022/10/12 10:30:15;;;;;;;13.88;5.95;;;;;;;9.96;57.75;100703.44;10384452;28;20172;-71
2022/10/12 10:35:32;;;;;;;10.15;5.45;;;;;;;10.20;57.31;100702.31;10385075;28;20484;-71
2022/10/12 10:40:34;;;;;;;14.60;5.60;;;;;;;10.49;56.20;100696.59;10383904;28;20037;-71
2022/10/12 10:45:43;;;;;;;16.83;6.35;;;;;;;10.84;54.98;100687.03;10380291;28;20217;-71
2022/10/12 10:51:01;;;;;;;10.20;5.40;;;;;;;11.23;53.92;100680.69;10386000;28;20076;-71
2022/10/12 10:56:11;;;;;;;11.88;5.88;;;;;;;11.51;53.87;100684.53;10385485;28;20053;-72
2022/10/12 11:01:30;;;;;;;10.73;5.87;;;;;;;11.64;53.61;100672.50;10383306;28;20049;-71
2022/10/12 11:06:41;;;;;;;10.63;5.68;;;;;;;11.82;53.72;100664.53;10383917;28;20456;-71
2022/10/12 11:11:46;;;;;;;12.63;6.05;;;;;;;12.27;53.11;100650.69;10384507;28;20049;-71
2022/10/12 11:16:59;;;;;;;12.18;6.35;;;;;;;12.55;52.09;100648.25;10383885;28;20088;-71
2022/10/12 11:22:29;;;;;;;13.43;5.95;;;;;;;12.64;51.24;100647.72;10385167;28;20060;-72
2022/10/12 11:27:37;;;;;;;14.15;5.65;;;;;;;12.83;52.05;100645.75;10390409;28;20069;-70
2022/10/12 11:32:46;;;;;;;15.55;5.88;;;;;;;12.93;51.25;100641.66;10393293;28;20049;-70
2022/10/12 11:37:55;;;;;;;14.77;5.77;;;;;;;13.26;51.23;100628.31;10392060;28;20308;-70
2022/10/12 11:43:02;;;;;;;11.73;5.28;;;;;;;13.64;50.30;100612.88;10390447;28;20068;-71
2022/10/12 11:48:12;;;;;;;10.43;4.55;;;;;;;13.72;49.70;100619.34;10392747;28;20049;-71
2022/10/12 11:53:26;;;;;;;13.02;4.13;;;;;;;13.92;49.16;100612.88;10389958;28;20051;-71
2022/10/12 11:58:30;;;;;;;9.68;3.95;;;;;;;14.34;48.81;100609.28;10391266;28;20545;-71
2022/10/12 12:04:13;;;;;;;11.65;4.15;;;;;;;14.27;49.51;100600.06;10403206;28;20196;-71
2022/10/12 12:09:38;;;;;;;7.97;4.18;;;;;;;14.58;48.74;100597.19;10382853;28;20045;-71
2022/10/12 12:14:52;;;;;;;12.20;4.75;;;;;;;14.64;48.59;100591.50;10390391;28;20049;-71
2022/10/12 12:19:55;;;;;;;10.23;4.53;;;;;;;14.76;48.65;100585.44;10389626;28;20067;-71
2022/10/12 12:25:12;;;;;;;10.50;4.22;;;;;;;15.08;47.96;100572.75;10375222;28;20053;-71
2022/10/12 12:30:16;;;;;;;10.05;4.63;;;;;;;15.28;47.10;100565.16;10389335;28;20425;-72
2022/10/12 12:35:20;;;;;;;14.23;5.15;;;;;;;15.15;47.43;100547.66;10387043;28;20085;-71
2022/10/12 12:40:23;;;;;;;10.75;4.60;;;;;;;15.26;47.99;100545.13;10388300;28;20049;-72
2022/10/12 12:45:39;;;;;;;9.60;4.57;;;;;;;15.22;47.50;100536.59;10390482;28;20116;-72
2022/10/12 12:50:41;;;;;;;11.20;4.10;;;;;;;15.34;48.09;100533.13;10389508;28;20485;-71
2022/10/12 12:55:49;;;;;;;13.82;4.25;;;;;;;15.49;47.73;100544.38;10388429;28;20467;-72
2022/10/12 13:01:35;;;;;;;12.73;4.13;;;;;;;15.57;48.05;100539.41;10388703;28;20387;-73
2022/10/12 13:06:59;;;;;;;8.65;3.88;;;;;;;15.75;48.11;100532.84;10339654;28;20407;-73
2022/10/12 13:12:34;;;;;;;11.43;4.55;;;;;;;15.66;47.72;100522.97;10388605;28;20057;-73
2022/10/12 13:18:00;;;;;;;16.60;4.78;;;;;;;15.68;47.90;100526.31;10386645;28;20061;-73
2022/10/12 13:23:07;;;;;;;12.23;4.35;;;;;;;15.80;47.85;100528.09;10385938;28;20128;-73
2022/10/12 13:28:15;;;;;;;11.90;4.45;;;;;;;15.96;47.71;100528.66;10387854;28;20049;-72
2022/10/12 13:33:29;;;;;;;14.40;4.03;;;;;;;16.02;47.85;100532.63;10388728;28;20053;-72
2022/10/12 13:38:34;;;;;;;12.38;4.22;;;;;;;16.16;47.64;100525.41;10387568;28;20168;-72
2022/10/12 13:44:05;;;;;;;10.68;4.32;;;;;;;16.18;47.13;100507.66;10388417;28;20049;-72
2022/10/12 13:49:16;;;;;;;13.18;4.18;;;;;;;16.20;47.65;100512.84;10386848;28;20092;-72
2022/10/12 13:54:24;;;;;;;9.27;4.05;;;;;;;16.18;47.86;100497.09;10385302;28;20049;-73
2022/10/12 13:59:29;;;;;;;13.60;4.22;;;;;;;16.20;48.33;100495.19;10387239;28;20057;-74
2022/10/12 14:04:33;;;;;;;9.27;4.20;;;;;;;16.19;48.91;100492.69;10385924;28;20458;-73
2022/10/12 14:09:42;;;;;;;17.20;4.60;;;;;;;16.07;49.09;100477.75;10382517;28;20551;-73
2022/10/12 14:14:45;;;;;;;12.48;4.60;;;;;;;16.23;48.86;100473.88;10386385;28;20049;-74
2022/10/12 14:19:50;;;;;;;12.25;4.40;;;;;;;16.23;49.22;100483.56;10387274;28;20143;-72
2022/10/12 14:25:16;;;;;;;16.08;5.15;;;;;;;16.24;48.90;100477.34;10385512;28;20052;-73
2022/10/12 14:30:22;;;;;;;12.38;4.88;;;;;;;16.32;49.08;100472.34;10386274;28;20509;-72
2022/10/12 14:35:26;;;;;;;14.38;4.60;;;;;;;16.48;48.89;100478.19;10386676;28;20045;-73
2022/10/12 14:40:40;;;;;;;14.52;5.40;;;;;;;16.46;48.66;100468.69;10384620;28;20080;-71
2022/10/12 14:45:42;;;;;;;14.95;5.13;;;;;;;16.46;48.53;100479.25;10386664;28;20391;-72
2022/10/12 14:50:45;;;;;;;13.32;5.45;;;;;;;16.39;49.09;100477.97;10385315;28;20100;-72
2022/10/12 14:55:46;;;;;;;16.02;5.85;;;;;;;16.33;48.94;100473.16;10384590;28;20492;-74
2022/10/12 15:00:54;;;;;;;12.15;5.20;;;;;;;16.36;49.18;100471.16;10382559;28;20049;-73
2022/10/12 15:05:56;;;;;;;12.45;5.15;;;;;;;16.39;49.14;100457.72;10384397;28;20061;-73
2022/10/12 15:10:57;;;;;;;14.27;5.10;;;;;;;16.35;49.94;100460.69;10384236;28;20100;-74
2022/10/12 15:16:00;;;;;;;11.20;4.50;;;;;;;16.33;50.71;100459.97;10384346;28;20085;-74
2022/10/12 15:21:03;;;;;;;10.25;4.68;;;;;;;16.23;51.44;100458.03;10385929;28;20061;-72
2022/10/12 15:26:05;;;;;;;12.75;5.38;;;;;;;16.15;52.06;100452.47;10379831;28;20353;-74
2022/10/12 15:31:13;;;;;;;11.57;4.43;;;;;;;16.02;53.03;100443.78;10377916;28;20045;-73
2022/10/12 15:36:18;;;;;;;11.88;4.60;;;;;;;16.02;53.61;100441.16;10375849;28;20048;-73
2022/10/12 15:41:24;;;;;;;13.02;4.53;;;;;;;16.19;52.38;100432.81;10382751;28;20049;-74
2022/10/12 15:46:26;;;;;;;12.10;4.70;;;;;;;16.34;51.92;100424.72;10383843;28;20049;-74
2022/10/12 15:51:28;;;;;;;14.63;4.80;;;;;;;16.37;51.74;100416.53;10383613;28;20050;-74
2022/10/12 15:56:30;;;;;;;12.70;5.40;;;;;;;16.28;51.31;100430.44;10382686;28;20057;-74
2022/10/12 16:01:33;;;;;;;10.73;4.55;;;;;;;16.14;52.63;100429.66;10382531;28;20743;-75
2022/10/12 16:06:35;;;;;;;15.95;5.20;;;;;;;16.06;53.44;100424.13;10382995;28;20101;-74
2022/10/12 16:11:37;;;;;;;12.07;6.20;;;;;;;15.90;53.80;100417.47;10384348;28;20060;-75
2022/10/12 16:16:38;;;;;;;13.70;6.00;;;;;;;15.58;54.21;100418.97;10387535;28;20056;-74
2022/10/12 16:21:40;;;;;;;12.75;5.60;;;;;;;15.16;55.15;100418.44;10421647;28;20064;-74
2022/10/12 16:26:42;;;;;;;22.27;6.00;;;;;;;14.81;55.67;100413.97;10387899;28;20057;-74
2022/10/12 16:31:45;;;;;;;13.35;6.32;;;;;;;14.44;56.53;100418.25;10390604;28;20599;-75
2022/10/12 16:36:47;;;;;;;17.00;5.90;;;;;;;14.07;56.99;100412.00;10387703;28;20054;-74
2022/10/12 16:41:49;;;;;;;12.75;6.07;;;;;;;13.71;57.95;100415.28;10389544;28;20064;-75
2022/10/12 16:46:50;;;;;;;13.68;7.10;;;;;;;13.40;58.46;100414.66;10389813;28;20297;-75
2022/10/12 16:51:52;;;;;;;17.67;7.38;;;;;;;13.16;59.22;100419.69;10390194;28;20130;-75
2022/10/12 16:56:55;;;;;;;20.67;8.40;;;;;;;12.91;59.52;100424.75;10387810;28;20065;-74
2022/10/12 17:01:56;;;;;;;15.95;7.03;;;;;;;12.70;59.70;100439.22;10387080;28;20061;-75
2022/10/12 17:06:58;;;;;;;19.63;8.00;;;;;;;12.46;60.64;100427.53;10388522;28;20153;-75
2022/10/12 17:12:00;;;;;;;15.35;7.53;;;;;;;12.28;61.70;100425.97;10387708;28;20490;-75
2022/10/12 17:17:02;;;;;;;14.85;7.15;;;;;;;12.08;62.13;100441.09;10389157;28;20073;-75
2022/10/12 17:22:05;;;;;;;21.77;11.57;;;;;;;11.99;62.42;100448.63;10386964;28;20042;-75
2022/10/12 17:27:08;;;;;;;18.20;8.82;;;;;;;11.88;62.83;100454.50;10387509;28;20049;-75
2022/10/12 17:32:10;;;;;;;17.02;7.75;;;;;;;11.72;62.92;100442.34;10385471;28;20413;-76
2022/10/12 17:37:13;;;;;;;15.00;6.95;;;;;;;11.62;63.18;100443.81;10387991;28;20852;-64
2022/10/12 17:42:14;;;;;;;14.68;6.72;;;;;;;11.57;63.38;100443.22;10385085;28;20046;-64
2022/10/12 17:47:16;;;;;;;12.35;6.38;;;;;;;11.51;63.33;100439.16;10384687;28;20182;-64
2022/10/12 17:52:19;;;;;;;16.35;6.75;;;;;;;11.48;63.88;100441.13;10384310;28;20057;-64
2022/10/12 17:57:20;;;;;;;15.68;7.10;;;;;;;11.45;63.87;100446.50;10384617;28;20057;-64
2022/10/12 18:02:22;;;;;;;15.98;8.63;;;;;;;11.34;64.14;100447.09;10385520;28;20065;-65
2022/10/12 18:07:24;;;;;;;18.48;8.18;;;;;;;11.26;64.33;100446.66;10386143;28;20069;-64
2022/10/12 18:12:25;;;;;;;15.15;7.60;;;;;;;11.13;64.58;100435.19;10387248;28;20059;-64
2022/10/12 18:17:27;;;;;;;12.07;6.65;;;;;;;11.06;64.44;100445.13;10383498;28;20057;-65
2022/10/12 18:22:29;;;;;;;18.88;9.20;;;;;;;10.98;64.22;100452.50;10380474;28;20050;-64
2022/10/12 18:27:32;;;;;;;18.65;8.82;;;;;;;10.86;64.52;100454.94;10384792;28;20054;-64
2022/10/12 18:32:34;;;;;;;14.98;8.00;;;;;;;10.76;64.63;100464.19;10384040;28;20050;-63
2022/10/12 18:37:35;;;;;;;17.60;8.30;;;;;;;10.62;64.97;100464.06;10377724;28;20528;-64
2022/10/12 18:42:37;;;;;;;18.30;8.30;;;;;;;10.52;65.05;100461.91;10385383;28;20301;-64
2022/10/12 18:47:39;;;;;;;22.50;8.40;;;;;;;10.40;65.32;100465.13;10386011;28;20061;-64
2022/10/12 18:52:41;;;;;;;15.55;7.65;;;;;;;10.31;65.47;100478.69;10385915;28;20057;-64
2022/10/12 18:57:42;;;;;;;20.38;8.48;;;;;;;10.23;65.63;100482.59;10385741;28;20049;-64
2022/10/12 19:02:44;;;;;;;20.63;10.15;;;;;;;10.10;66.01;100478.88;10385396;28;21189;-64
2022/10/12 19:07:46;;;;;;;18.75;10.27;;;;;;;10.04;66.33;100479.19;10384373;28;20060;-64
2022/10/12 19:12:47;;;;;;;19.20;9.32;;;;;;;9.98;66.36;100482.94;10383138;28;20046;-64
2022/10/12 19:17:49;;;;;;;21.75;9.05;;;;;;;9.97;66.24;100477.81;10384358;28;20391;-64
2022/10/12 19:22:50;;;;;;;18.30;8.00;;;;;;;10.01;66.01;100466.28;10385414;28;20056;-65
2022/10/12 19:27:52;;;;;;;15.52;7.65;;;;;;;10.01;66.07;100474.94;10385219;28;20045;-64
2022/10/12 19:32:54;;;;;;;19.38;8.48;;;;;;;9.97;66.10;100472.59;10385247;28;20498;-64
2022/10/12 19:37:55;;;;;;;16.77;9.40;;;;;;;9.88;66.48;100473.88;10383299;28;20049;-64
2022/10/12 19:42:57;;;;;;;14.77;8.23;;;;;;;9.89;66.30;100491.22;10384057;28;20060;-64
2022/10/12 19:47:59;;;;;;;17.95;10.30;;;;;;;9.93;66.25;100498.00;10389643;28;20497;-64
2022/10/12 19:53:01;;;;;;;17.58;9.40;;;;;;;9.77;66.53;100489.19;10390506;28;20099;-64
2022/10/12 19:58:02;;;;;;;22.02;10.15;;;;;;;9.93;66.25;100498.00;10391556;28;20071;-64
2022/10/12 20:03:04;;;;;;;18.83;9.00;;;;;;;9.96;66.08;100491.78;10389945;28;20520;-64
2022/10/12 20:08:06;;;;;;;17.15;8.23;;;;;;;9.96;65.92;100499.63;10391122;28;20444;-64
2022/10/12 20:13:07;;;;;;;16.17;9.13;;;;;;;9.72;66.06;100479.91;10391917;28;20045;-64
2022/10/12 20:18:09;;;;;;;18.63;9.55;;;;;;;9.39;67.02;100483.13;10390466;28;20398;-64
2022/10/12 20:23:11;;;;;;;16.73;9.20;;;;;;;9.21;67.57;100498.78;10390648;28;20060;-63
2022/10/12 20:28:13;;;;;;;19.55;10.13;;;;;;;9.30;67.37;100493.16;10389516;28;20042;-64
2022/10/12 20:33:15;;;;;;;15.77;8.90;;;;;;;9.25;67.29;100506.41;10390636;28;20464;-63
2022/10/12 20:38:18;;;;;;;18.08;9.65;;;;;;;9.22;67.39;100496.09;10388749;28;20061;-63
2022/10/12 20:43:19;;;;;;;25.83;11.50;;;;;;;9.16;67.45;100477.25;10389163;28;20072;-63
2022/10/12 20:48:21;;;;;;;20.77;11.05;;;;;;;9.07;67.92;100495.94;10389551;28;20077;-63
2022/10/12 20:53:23;;;;;;;17.33;10.05;;;;;;;8.88;67.99;100495.91;10389104;28;20042;-63
2022/10/12 20:58:26;;;;;;;14.70;10.00;;;;;;;8.91;67.76;100493.19;10389540;28;20057;-63
2022/10/12 21:03:28;;;;;;;22.85;12.93;;;;;;;8.68;67.76;100488.97;10387752;28;20065;-63
2022/10/12 21:08:30;;;;;;;22.23;10.38;;;;;;;8.57;68.02;100487.72;10388513;28;20053;-63
2022/10/12 21:13:34;;;;;;;19.73;10.05;;;;;;;8.55;67.96;100485.19;10388843;28;20049;-63
2022/10/12 21:18:37;;;;;;;21.27;10.40;;;;;;;8.58;67.85;100481.59;10388372;28;20802;-63
2022/10/12 21:23:40;;;;;;;16.05;9.63;;;;;;;8.58;67.84;100476.38;10387425;28;20049;-63
2022/10/12 21:28:42;;;;;;;18.38;10.13;;;;;;;8.58;67.69;100486.81;10386973;28;20056;-63
2022/10/12 21:33:44;;;;;;;15.80;8.63;;;;;;;8.46;67.55;100489.94;10388621;28;20612;-63
2022/10/12 21:38:46;;;;;;;58.85;13.95;;;;;;;8.43;67.64;100485.69;10387076;28;20397;-63
2022/10/12 21:43:49;;;;;;;18.02;11.07;;;;;;;8.42;67.46;100475.34;10387847;28;20054;-63
2022/10/12 21:48:51;;;;;;;37.95;14.18;;;;;;;8.34;67.56;100480.03;10369186;28;20175;-63
2022/10/12 21:53:53;;;;;;;166.20;17.52;;;;;;;8.17;67.54;100478.13;10386613;28;20053;-63
2022/10/12 21:58:58;;;;;;;131.70;17.67;;;;;;;8.11;67.73;100467.97;10386097;28;20489;-63
2022/10/12 22:04:02;;;;;;;78.72;14.70;;;;;;;8.05;67.94;100457.75;10386470;28;20061;-63
2022/10/12 22:09:07;;;;;;;28.40;13.50;;;;;;;8.07;67.74;100470.72;10386271;28;20387;-63
2022/10/12 22:14:12;;;;;;;354.92;28.35;;;;;;;7.91;67.99;100471.34;10386102;28;20053;-63
2022/10/12 22:19:18;;;;;;;19.80;10.65;;;;;;;7.93;68.07;100479.94;10386407;28;20076;-63
2022/10/12 22:24:20;;;;;;;18.50;9.85;;;;;;;7.95;67.85;100485.94;10385915;28;20042;-63
2022/10/12 22:29:22;;;;;;;278.10;20.85;;;;;;;7.96;67.70;100491.97;10386172;28;20049;-63
2022/10/12 22:34:24;;;;;;;107.60;16.00;;;;;;;7.93;67.77;100486.91;10385015;28;20058;-63
2022/10/12 22:39:25;;;;;;;135.63;15.40;;;;;;;8.00;67.46;100488.34;10385462;28;20061;-63
2022/10/12 22:44:27;;;;;;;169.73;13.05;;;;;;;7.93;67.81;100482.56;10385488;28;20390;-63
2022/10/12 22:49:28;;;;;;;208.52;16.30;;;;;;;7.87;67.54;100488.00;10384355;28;20049;-63
2022/10/12 22:54:30;;;;;;;95.30;14.23;;;;;;;7.78;67.51;100483.16;10382925;28;20050;-63
2022/10/12 22:59:32;;;;;;;409.27;23.08;;;;;;;7.76;67.27;100474.56;10383043;28;20631;-63
2022/10/12 23:04:34;;;;;;;389.30;14.15;;;;;;;7.66;67.59;100481.03;10384040;28;20057;-63
2022/10/12 23:09:35;;;;;;;148.98;14.25;;;;;;;7.63;67.67;100477.72;10384367;28;20045;-63